Time;durP1;ratioP1;P1;durP2;ratioP2;P2;SDS_P1;SDS_P2;PMS_P1;PMS_P2;Temp;Humidity;BMP_temperature;BMP_pressure;BME280_temperature;BME280_humidity;BME280_pressure;Samples;Min_cycle;Max_cycle;Signal;HPM_P1;HPM_P2
2022/02/24 00:01:26;;;;;;;;;;;;;;;3.77;79.49;100597.84;1729559;82;21012;-60
2022/02/24 00:03:52;;;;;;;22.07;14.87;;;;;;;3.77;79.54;100600.02;1749618;80;20106;-62
2022/02/24 00:06:22;;;;;;;20.08;13.90;;;;;;;3.76;79.74;100598.34;1741602;80;21039;-61
2022/02/24 00:08:47;;;;;;;20.53;13.90;;;;;;;3.79;79.67;100602.52;1745011;80;21528;-62
2022/02/24 00:11:13;;;;;;;18.80;12.82;;;;;;;3.78;79.66;100606.11;1746264;80;22210;-60
2022/02/24 00:13:40;;;;;;;21.87;15.17;;;;;;;3.81;79.74;100604.53;1741752;80;21047;-63
2022/02/24 00:16:06;;;;;;;20.02;13.75;;;;;;;3.80;79.68;100605.48;1743032;80;21075;-60
2022/02/24 00:18:33;;;;;;;18.30;14.18;;;;;;;3.76;79.91;100610.70;1734240;80;21090;-61
2022/02/24 00:20:59;;;;;;;20.68;13.98;;;;;;;3.70;79.99;100607.63;1741559;80;21123;-61
2022/02/24 00:23:26;;;;;;;23.77;15.05;;;;;;;3.67;80.22;100607.92;1741629;80;20984;-61
2022/02/24 00:25:53;;;;;;;20.57;14.70;;;;;;;3.69;80.31;100608.62;1740331;80;21475;-60
2022/02/24 00:28:19;;;;;;;23.85;14.78;;;;;;;3.69;80.42;100612.57;1735852;80;21000;-60
2022/02/24 00:30:45;;;;;;;19.80;14.90;;;;;;;3.71;80.20;100611.09;1742296;80;21020;-60
2022/02/24 00:33:11;;;;;;;19.17;14.68;;;;;;;3.72;80.31;100609.31;1742113;80;20986;-61
2022/02/24 00:35:37;;;;;;;21.93;14.18;;;;;;;3.72;80.27;100617.22;1753695;80;21001;-60
2022/02/24 00:38:04;;;;;;;20.20;13.30;;;;;;;3.67;80.33;100614.52;1752102;80;20984;-63
2022/02/24 00:40:30;;;;;;;22.17;14.47;;;;;;;3.65;80.34;100611.64;1741982;80;21110;-61
2022/02/24 00:42:56;;;;;;;16.40;12.20;;;;;;;3.69;80.32;100615.20;1731711;80;21079;-61
2022/02/24 00:45:22;;;;;;;19.02;13.62;;;;;;;3.76;79.94;100611.52;1748682;79;21563;-64
2022/02/24 00:47:49;;;;;;;17.70;13.13;;;;;;;3.80;79.81;100620.81;1729914;80;21099;-59
2022/02/24 00:50:15;;;;;;;17.42;14.47;;;;;;;3.81;79.81;100621.67;1750909;80;21058;-60
2022/02/24 00:52:43;;;;;;;20.10;14.30;;;;;;;3.77;80.11;100617.63;1736034;80;21554;-60
2022/02/24 00:55:09;;;;;;;19.57;14.53;;;;;;;3.75;80.10;100625.69;1726949;80;21098;-63
2022/02/24 00:57:36;;;;;;;23.70;14.98;;;;;;;3.71;80.20;100622.95;1739760;80;21519;-62
2022/02/24 01:00:05;;;;;;;19.02;14.80;;;;;;;3.73;80.15;100628.09;1714907;81;21004;-59
2022/02/24 01:02:32;;;;;;;23.07;15.70;;;;;;;3.77;80.10;100631.66;1753675;80;21050;-62
2022/02/24 01:04:59;;;;;;;26.57;15.65;;;;;;;3.80;79.87;100629.22;1749325;80;21075;-61
2022/02/24 01:07:25;;;;;;;25.08;18.02;;;;;;;3.85;79.89;100634.92;1738287;80;21146;-61
2022/02/24 01:09:51;;;;;;;20.43;16.52;;;;;;;3.85;79.95;100641.52;1748213;81;21026;-63
2022/02/24 01:12:17;;;;;;;28.70;18.27;;;;;;;3.79;80.04;100640.27;1748434;80;20988;-61
2022/02/24 01:14:43;;;;;;;24.95;17.42;;;;;;;3.78;80.44;100637.76;1736397;80;21011;-59
2022/02/24 01:17:11;;;;;;;25.57;18.67;;;;;;;3.79;80.58;100645.53;1746469;80;21010;-61
2022/02/24 01:19:37;;;;;;;24.02;18.45;;;;;;;3.84;80.28;100643.80;1753815;80;21195;-60
2022/02/24 01:22:04;;;;;;;22.63;18.20;;;;;;;3.90;80.09;100645.91;1753824;80;20984;-60
2022/02/24 01:24:30;;;;;;;;;;;;;;;3.91;79.97;100647.55;1754881;80;21039;-62
2022/02/24 01:26:56;;;;;;;26.47;19.87;;;;;;;3.93;80.02;100648.73;1730604;82;20167;-60
2022/02/24 01:29:23;;;;;;;29.72;21.95;;;;;;;3.82;80.34;100645.24;1741938;80;21083;-61
2022/02/24 01:31:50;;;;;;;27.10;21.33;;;;;;;3.75;80.50;100645.47;1729872;82;21590;-61
2022/02/24 01:34:19;;;;;;;25.30;21.27;;;;;;;3.68;80.78;100643.84;1740072;80;21024;-62
2022/02/24 01:36:44;;;;;;;28.77;20.33;;;;;;;3.70;80.73;100647.67;1740009;80;21003;-60
2022/02/24 01:39:10;;;;;;;18.57;16.65;;;;;;;3.73;80.64;100642.14;1751659;80;21047;-60
2022/02/24 01:41:36;;;;;;;23.02;18.20;;;;;;;3.77;80.65;100643.52;1745927;80;21024;-60
2022/02/24 01:44:11;;;;;;;25.45;19.42;;;;;;;3.80;80.67;100649.83;1737483;81;21329;-62
2022/02/24 01:46:38;;;;;;;25.60;19.13;;;;;;;3.80;80.59;100648.50;1737127;80;20983;-60
2022/02/24 01:49:05;;;;;;;24.87;18.98;;;;;;;3.78;80.72;100646.48;1725933;80;20980;-60
2022/02/24 01:51:33;;;;;;;24.97;19.03;;;;;;;3.75;80.95;100650.73;1752303;80;21050;-60
2022/02/24 01:53:59;;;;;;;19.97;16.27;;;;;;;3.78;81.07;100653.58;1736128;80;21051;-59
2022/02/24 01:56:26;;;;;;;;;;;;;;;3.86;80.88;100655.03;1732113;80;21535;-61
2022/02/24 01:58:54;;;;;;;27.20;17.87;;;;;;;3.92;80.64;100657.61;1737332;80;20129;-60
2022/02/24 02:01:21;;;;;;;18.97;15.43;;;;;;;3.89;80.72;100658.23;1739709;80;21063;-62
2022/02/24 02:03:50;;;;;;;22.60;16.57;;;;;;;3.93;80.60;100660.12;1754029;80;21055;-61
2022/02/24 02:06:19;;;;;;;27.33;20.13;;;;;;;3.90;80.38;100663.87;1743712;80;21047;-59
2022/02/24 02:08:45;;;;;;;26.30;19.43;;;;;;;3.82;80.42;100665.52;1743281;80;21112;-61
2022/02/24 02:11:12;;;;;;;23.87;18.12;;;;;;;3.77;80.61;100672.98;1744449;79;21039;-62
2022/02/24 02:13:39;;;;;;;27.33;18.83;;;;;;;3.76;80.62;100679.25;1682636;83;21034;-60
2022/02/24 02:16:07;;;;;;;23.10;18.92;;;;;;;3.82;80.55;100682.66;1703008;82;21064;-61
2022/02/24 02:18:35;;;;;;;23.17;18.20;;;;;;;3.90;80.45;100685.46;1698390;82;21512;-63
2022/02/24 02:21:01;;;;;;;25.77;17.87;;;;;;;3.98;80.26;100685.60;1699544;82;21469;-60
2022/02/24 02:23:27;;;;;;;23.22;17.48;;;;;;;4.05;80.11;100679.28;1708666;82;21019;-60
2022/02/24 02:25:53;;;;;;;23.22;18.55;;;;;;;4.03;79.99;100688.67;1738134;81;21444;-60
2022/02/24 02:28:20;;;;;;;23.95;19.42;;;;;;;4.01;80.09;100691.94;1728841;81;21051;-60
2022/02/24 02:30:46;;;;;;;25.43;20.40;;;;;;;4.01;80.19;100691.94;1730652;81;21027;-62
2022/02/24 02:33:12;;;;;;;25.00;19.75;;;;;;;4.03;80.31;100694.41;1723060;79;21051;-60
2022/02/24 02:35:39;;;;;;;24.37;19.67;;;;;;;4.07;79.98;100704.56;1720995;81;21116;-60
2022/02/24 02:38:05;;;;;;;27.47;18.00;;;;;;;4.12;79.61;100705.46;1733878;81;21084;-61
2022/02/24 02:40:37;;;;;;;22.40;17.32;;;;;;;4.16;79.56;100708.66;1739820;81;21135;-60
2022/02/24 02:43:08;;;;;;;23.47;18.33;;;;;;;4.22;79.30;100704.14;1725735;81;21044;-63
2022/02/24 02:45:37;;;;;;;21.83;17.60;;;;;;;4.25;79.18;100713.94;1750064;80;21133;-61
2022/02/24 02:48:05;;;;;;;21.37;16.60;;;;;;;4.22;79.18;100713.38;1742491;80;20984;-59
2022/02/24 02:50:32;;;;;;;21.83;17.43;;;;;;;4.20;79.27;100721.46;1753447;80;21056;-60
2022/02/24 02:53:05;;;;;;;26.67;19.87;;;;;;;4.19;79.35;100715.82;1744716;80;21015;-60
2022/02/24 02:55:32;;;;;;;40.87;26.60;;;;;;;4.20;79.32;100718.82;1741613;80;21044;-60
2022/02/24 02:57:58;;;;;;;41.57;29.00;;;;;;;4.21;79.07;100720.97;1750537;80;21076;-64
2022/02/24 03:00:25;;;;;;;40.88;28.00;;;;;;;4.27;78.92;100723.05;1743668;80;21031;-61
2022/02/24 03:02:51;;;;;;;;;;;;;;;4.30;78.70;100732.02;1756613;80;21147;-60
2022/02/24 03:05:17;;;;;;;34.27;24.23;;;;;;;4.30;78.56;100732.02;1748159;80;20101;-59
2022/02/24 03:07:43;;;;;;;33.10;22.75;;;;;;;4.21;78.69;100735.48;1749059;80;21035;-60
2022/02/24 03:10:09;;;;;;;35.73;24.32;;;;;;;4.20;79.00;100732.02;1748018;80;21365;-61
2022/02/24 03:12:36;;;;;;;34.92;25.17;;;;;;;4.16;79.11;100737.19;1743471;79;20991;-61
2022/02/24 03:15:09;;;;;;;27.82;23.73;;;;;;;4.07;79.28;100741.50;1742814;80;21602;-60
2022/02/24 03:17:36;;;;;;;26.37;20.40;;;;;;;4.02;79.66;100742.38;1739174;80;20996;-61
2022/02/24 03:20:04;;;;;;;27.62;21.55;;;;;;;4.04;79.77;100738.30;1746894;80;20984;-60
2022/02/24 03:22:31;;;;;;;23.23;18.57;;;;;;;4.15;79.59;100736.86;1752960;80;21055;-58
2022/02/24 03:25:01;;;;;;;29.10;21.90;;;;;;;4.22;79.31;100739.77;1748949;80;21063;-57
2022/02/24 03:27:27;;;;;;;32.50;24.27;;;;;;;4.22;79.18;100741.95;1750268;80;21019;-60
2022/02/24 03:29:54;;;;;;;27.02;22.50;;;;;;;4.18;79.33;100743.66;1749217;80;21102;-61
2022/02/24 03:32:21;;;;;;;21.37;17.90;;;;;;;4.16;79.62;100743.78;1751095;80;21023;-61
2022/02/24 03:34:48;;;;;;;25.77;17.80;;;;;;;4.16;79.70;100748.23;1754166;79;20963;-62
2022/02/24 03:37:15;;;;;;;22.43;16.97;;;;;;;4.16;79.57;100756.16;1729297;81;21019;-61
2022/02/24 03:39:42;;;;;;;21.40;16.60;;;;;;;4.19;79.40;100755.89;1742082;80;21524;-61
2022/02/24 03:42:09;;;;;;;;;;;;;;;4.26;79.01;100755.70;1752036;80;22256;-62
2022/02/24 03:44:35;;;;;;;17.27;13.53;;;;;;;4.30;78.76;100757.09;1747486;80;20207;-61
2022/02/24 03:47:02;;;;;;;16.10;13.60;;;;;;;4.29;78.70;100753.62;1752624;80;22058;-62
2022/02/24 03:49:28;;;;;;;;;;;;;;;4.21;78.75;100746.86;1748930;80;21163;-61
2022/02/24 03:51:54;;;;;;;16.13;13.37;;;;;;;4.20;78.75;100756.22;1748765;80;20443;-64
2022/02/24 03:54:20;;;;;;;24.82;15.55;;;;;;;4.03;79.11;100758.58;1748061;80;21052;-61
2022/02/24 03:56:46;;;;;;;16.97;15.00;;;;;;;3.95;79.46;100756.25;1744250;79;21008;-61
2022/02/24 03:59:14;;;;;;;21.07;14.78;;;;;;;3.93;79.94;100752.42;1749842;80;22220;-66
2022/02/24 04:01:40;;;;;;;21.40;16.03;;;;;;;3.96;79.99;100756.13;1748501;79;21020;-60
2022/02/24 04:04:06;;;;;;;22.45;14.50;;;;;;;4.06;79.68;100756.97;1736366;80;21039;-61
2022/02/24 04:06:32;;;;;;;21.82;14.80;;;;;;;4.16;79.63;100753.02;1741279;80;21052;-61
2022/02/24 04:08:58;;;;;;;17.30;14.47;;;;;;;4.24;79.52;100749.23;1746402;80;21707;-59
2022/02/24 04:11:24;;;;;;;19.02;15.23;;;;;;;4.25;79.42;100752.20;1743605;79;22209;-61
2022/02/24 04:13:51;;;;;;;21.70;15.43;;;;;;;4.28;79.27;100759.03;1742119;80;21527;-67
2022/02/24 04:16:17;;;;;;;19.15;16.52;;;;;;;4.31;79.17;100754.78;1746392;80;21511;-63
2022/02/24 04:18:43;;;;;;;22.22;17.02;;;;;;;4.32;78.95;100760.92;1749314;80;21095;-65
2022/02/24 04:21:09;;;;;;;21.33;17.42;;;;;;;4.32;78.97;100762.23;1746226;80;21067;-62
2022/02/24 04:23:35;;;;;;;21.55;16.57;;;;;;;4.32;79.05;100770.98;1738607;80;21003;-61
2022/02/24 04:26:01;;;;;;;21.45;16.80;;;;;;;4.38;78.82;100782.30;1745450;80;21952;-62
2022/02/24 04:28:27;;;;;;;23.10;16.87;;;;;;;4.43;78.67;100780.09;1744917;80;21059;-61
2022/02/24 04:30:53;;;;;;;24.27;17.02;;;;;;;4.47;78.55;100785.44;1746789;80;21478;-63
2022/02/24 04:33:19;;;;;;;26.73;19.55;;;;;;;4.47;78.60;100793.36;1756928;79;21546;-62
2022/02/24 04:35:45;;;;;;;25.35;21.17;;;;;;;4.47;78.63;100800.45;1740548;80;21011;-63
2022/02/24 04:38:12;;;;;;;26.10;22.25;;;;;;;4.41;78.58;100795.23;1732894;80;21094;-63
2022/02/24 04:40:38;;;;;;;23.47;20.40;;;;;;;4.40;78.65;100808.56;1736398;80;21106;-61
2022/02/24 04:43:05;;;;;;;26.00;20.50;;;;;;;4.41;78.69;100809.75;1742810;80;21619;-63
2022/02/24 04:45:32;;;;;;;25.47;19.60;;;;;;;4.48;78.45;100806.06;1740956;80;21499;-62
2022/02/24 04:47:58;;;;;;;25.70;19.55;;;;;;;4.53;78.35;100815.73;1751394;80;21099;-62
2022/02/24 04:50:24;;;;;;;21.17;18.82;;;;;;;4.56;78.31;100823.85;1749593;80;21091;-62
2022/02/24 04:52:50;;;;;;;26.82;20.52;;;;;;;4.54;78.37;100825.80;1751334;80;21055;-61
2022/02/24 04:55:16;;;;;;;35.52;26.90;;;;;;;4.52;78.27;100820.68;1743444;80;21068;-61
2022/02/24 04:57:42;;;;;;;27.30;21.73;;;;;;;4.51;78.26;100826.09;1747497;80;21067;-62
2022/02/24 05:00:10;;;;;;;27.48;20.25;;;;;;;4.49;78.25;100828.86;1738917;79;21035;-63
2022/02/24 05:02:36;;;;;;;23.93;19.93;;;;;;;4.51;78.13;100834.02;1763784;80;21090;-62
2022/02/24 05:05:04;;;;;;;27.13;19.40;;;;;;;4.58;78.03;100839.09;1746004;80;21087;-61
2022/02/24 05:07:30;;;;;;;25.90;20.60;;;;;;;4.65;78.01;100837.55;1742314;80;21067;-61
2022/02/24 05:09:59;;;;;;;23.25;18.70;;;;;;;4.69;77.80;100852.18;1754381;80;21091;-61
2022/02/24 05:12:28;;;;;;;22.90;17.10;;;;;;;4.67;77.78;100852.77;1749770;78;21003;-61
2022/02/24 05:14:54;;;;;;;21.42;17.98;;;;;;;4.63;77.77;100850.06;1751004;80;21492;-63
2022/02/24 05:17:21;;;;;;;24.63;18.62;;;;;;;4.61;77.92;100853.33;1743941;80;21147;-60
2022/02/24 05:19:47;;;;;;;25.17;18.57;;;;;;;4.59;77.83;100854.78;1749198;80;21004;-62
2022/02/24 05:22:13;;;;;;;23.67;18.00;;;;;;;4.60;77.82;100863.06;1732010;80;21039;-62
2022/02/24 05:24:39;;;;;;;23.12;18.95;;;;;;;4.69;77.65;100868.02;1746412;80;21031;-61
2022/02/24 05:27:05;;;;;;;24.67;19.10;;;;;;;4.76;77.43;100873.58;1743474;80;21507;-61
2022/02/24 05:29:31;;;;;;;25.72;20.15;;;;;;;4.77;77.41;100876.08;1693838;83;21093;-60
2022/02/24 05:31:57;;;;;;;23.87;19.98;;;;;;;4.77;77.42;100887.14;1694292;83;20994;-59
2022/02/24 05:34:24;;;;;;;21.87;19.48;;;;;;;4.75;77.46;100888.59;1708291;82;21504;-61
2022/02/24 05:36:50;;;;;;;30.20;22.43;;;;;;;4.73;77.41;100893.18;1745133;80;21009;-60
2022/02/24 05:39:16;;;;;;;24.10;20.80;;;;;;;4.69;77.24;100901.03;1746411;80;21005;-61
2022/02/24 05:41:43;;;;;;;;;;;;;;;4.66;77.17;100905.25;1730847;80;21112;-60
2022/02/24 05:44:09;;;;;;;20.47;17.33;;;;;;;4.67;77.36;100903.80;1726699;80;20483;-60
2022/02/24 05:46:35;;;;;;;22.70;16.73;;;;;;;4.68;77.51;100912.55;1742504;80;21132;-60
2022/02/24 05:49:01;;;;;;;53.90;38.15;;;;;;;4.70;77.59;100915.89;1736812;80;21594;-65
2022/02/24 05:51:28;;;;;;;;;;;;;;;4.69;77.70;100915.55;1737004;80;21127;-66
2022/02/24 05:53:54;;;;;;;22.63;19.77;;;;;;;4.65;77.74;100920.73;1733082;80;20145;-64
2022/02/24 05:56:20;;;;;;;26.68;21.52;;;;;;;4.52;77.93;100924.11;1731242;82;21004;-65
2022/02/24 05:58:46;;;;;;;24.65;19.00;;;;;;;4.45;78.29;100922.01;1744683;80;20950;-66
2022/02/24 06:01:12;;;;;;;26.68;20.48;;;;;;;4.48;78.53;100929.67;1738575;80;21587;-66
2022/02/24 06:03:38;;;;;;;23.15;18.32;;;;;;;4.53;78.35;100937.67;1745193;80;21643;-67
2022/02/24 06:06:04;;;;;;;26.55;19.77;;;;;;;4.55;78.43;100939.69;1734778;80;21043;-66
2022/02/24 06:08:30;;;;;;;21.93;19.23;;;;;;;4.59;78.54;100945.05;1720576;82;21040;-65
2022/02/24 06:10:56;;;;;;;30.12;22.52;;;;;;;4.62;78.53;100952.70;1734665;80;21059;-65
2022/02/24 06:13:23;;;;;;;24.70;18.92;;;;;;;4.54;78.72;100959.13;1758828;80;21019;-66
2022/02/24 06:15:49;;;;;;;;;;;;;;;4.51;79.28;100956.77;1760497;80;21079;-66
2022/02/24 06:18:18;;;;;;;27.83;22.10;;;;;;;4.48;79.33;100965.31;1761250;80;20165;-65
2022/02/24 06:20:43;;;;;;;27.63;20.73;;;;;;;4.49;79.53;100962.18;1742610;80;21064;-62
2022/02/24 06:23:09;;;;;;;35.95;26.40;;;;;;;4.54;79.64;100971.86;1707083;82;21047;-61
2022/02/24 06:25:36;;;;;;;29.75;23.25;;;;;;;4.56;79.35;100975.66;1721319;81;20987;-63
2022/02/24 06:28:04;;;;;;;32.47;24.10;;;;;;;4.51;79.37;100976.08;1698517;82;21103;-64
2022/02/24 06:30:30;;;;;;;27.80;22.53;;;;;;;4.48;79.60;100974.55;1720621;81;21097;-64
2022/02/24 06:32:56;;;;;;;30.97;24.92;;;;;;;4.44;79.76;100984.17;1730069;81;21015;-62
2022/02/24 06:35:22;;;;;;;31.10;22.80;;;;;;;4.39;80.03;100981.95;1726456;79;21139;-63
2022/02/24 06:37:48;;;;;;;31.80;21.20;;;;;;;4.38;80.23;100984.22;1723952;81;21048;-63
2022/02/24 06:40:15;;;;;;;30.30;22.13;;;;;;;4.42;80.03;100984.30;1726318;81;21074;-63
2022/02/24 06:42:42;;;;;;;24.67;18.93;;;;;;;4.49;79.92;100985.94;1709426;82;21090;-62
2022/02/24 06:45:09;;;;;;;26.73;19.82;;;;;;;4.54;79.83;100992.98;1721137;81;21024;-62
2022/02/24 06:47:38;;;;;;;27.23;21.87;;;;;;;4.58;79.82;100994.38;1737543;81;21151;-62
2022/02/24 06:50:06;;;;;;;29.98;20.43;;;;;;;4.55;79.72;101000.41;1731942;81;21044;-63
2022/02/24 06:52:36;;;;;;;25.13;18.73;;;;;;;4.49;79.86;101001.28;1761566;80;21565;-61
2022/02/24 06:55:06;;;;;;;17.67;15.13;;;;;;;4.44;80.01;101002.66;1758780;80;21087;-64
2022/02/24 06:57:44;;;;;;;17.00;13.93;;;;;;;4.44;79.81;101014.03;1764651;80;21042;-62
2022/02/24 07:00:13;;;;;;;16.97;13.50;;;;;;;4.47;80.06;101012.95;1751316;80;21035;-62
2022/02/24 07:02:42;;;;;;;16.77;13.20;;;;;;;4.52;79.98;101013.87;1705546;83;21561;-63
2022/02/24 07:05:10;;;;;;;16.77;13.80;;;;;;;4.51;79.86;101018.32;1691265;83;21519;-69
2022/02/24 07:07:37;;;;;;;21.57;15.93;;;;;;;4.47;80.03;101012.95;1704251;82;21137;-63
2022/02/24 07:10:11;;;;;;;20.12;15.93;;;;;;;4.38;80.68;101022.98;1707704;82;21086;-63
2022/02/24 07:12:44;;;;;;;20.23;15.33;;;;;;;4.28;81.38;101026.41;1707523;82;21043;-61
2022/02/24 07:15:12;;;;;;;18.07;14.80;;;;;;;4.24;81.97;101022.84;1716949;81;21785;-64
2022/02/24 07:17:44;;;;;;;17.53;15.13;;;;;;;4.24;81.95;101029.45;1697358;82;21084;-65
2022/02/24 07:20:15;;;;;;;17.50;13.03;;;;;;;4.22;82.06;101030.89;1716051;81;21033;-63
2022/02/24 07:22:43;;;;;;;18.20;15.10;;;;;;;4.24;82.46;101031.59;1721516;81;21021;-62
2022/02/24 07:25:16;;;;;;;20.57;16.13;;;;;;;4.24;82.41;101033.41;1707114;82;21565;-66
2022/02/24 07:27:41;;;;;;;20.53;17.17;;;;;;;4.21;82.53;101036.30;1728495;81;21099;-65
2022/02/24 07:30:09;;;;;;;23.07;15.97;;;;;;;4.16;82.61;101040.63;1699241;83;21027;-66
2022/02/24 07:32:36;;;;;;;20.63;16.30;;;;;;;4.16;83.03;101045.90;1715288;81;21034;-62
2022/02/24 07:35:04;;;;;;;21.35;16.62;;;;;;;4.15;82.08;101048.20;1736558;81;21081;-63
2022/02/24 07:37:31;;;;;;;20.20;17.27;;;;;;;4.13;82.20;101051.95;1701310;82;21072;-64
2022/02/24 07:39:57;;;;;;;20.15;17.82;;;;;;;4.07;82.83;101054.61;1733157;81;21028;-63
2022/02/24 07:42:24;;;;;;;21.82;18.15;;;;;;;3.99;83.05;101059.19;1696060;82;21036;-64
2022/02/24 07:44:50;;;;;;;25.32;17.42;;;;;;;3.92;83.85;101060.69;1698991;82;21494;-64
2022/02/24 07:47:16;;;;;;;25.88;19.48;;;;;;;3.92;84.12;101064.64;1708830;82;21083;-64
2022/02/24 07:49:43;;;;;;;24.92;18.48;;;;;;;4.00;83.96;101064.00;1748650;80;21014;-63
2022/02/24 07:52:11;;;;;;;23.07;19.05;;;;;;;4.01;84.14;101066.52;1734067;81;21023;-63
2022/02/24 07:54:38;;;;;;;28.83;21.23;;;;;;;4.01;83.80;101073.11;1728802;80;20995;-66
2022/02/24 07:57:57;;;;;;;23.43;20.27;;;;;;;4.02;84.22;101075.26;1795404;78;22746;-64
2022/02/24 08:00:24;;;;;;;21.12;18.17;;;;;;;3.98;84.56;101075.16;1748090;80;21052;-64
2022/02/24 08:02:51;;;;;;;28.20;18.65;;;;;;;3.97;84.43;101086.17;1725886;81;21079;-62
2022/02/24 08:05:18;;;;;;;25.47;20.50;;;;;;;4.03;84.49;101078.23;1713629;81;21045;-63
2022/02/24 08:07:44;;;;;;;;;;;;;;;4.07;84.73;101083.64;1726989;81;21049;-63
2022/02/24 08:10:10;;;;;;;25.37;20.53;;;;;;;4.10;84.95;101085.51;1731507;81;20190;-63
2022/02/24 08:12:44;;;;;;;27.83;20.40;;;;;;;4.13;84.99;101082.29;1707595;79;21036;-62
2022/02/24 08:15:19;;;;;;;29.33;19.87;;;;;;;4.19;85.03;101084.41;1714157;83;21060;-62
2022/02/24 08:17:47;;;;;;;28.93;20.50;;;;;;;4.19;85.05;101093.64;1704729;83;21008;-68
2022/02/24 08:20:13;;;;;;;30.23;21.67;;;;;;;4.15;85.02;101094.37;1702027;83;20988;-64
2022/02/24 08:22:43;;;;;;;25.88;19.27;;;;;;;4.16;85.09;101100.48;1710517;81;21040;-64
2022/02/24 08:25:13;;;;;;;26.10;19.13;;;;;;;4.24;84.90;101098.06;1708898;83;21537;-62
2022/02/24 08:27:40;;;;;;;27.80;19.03;;;;;;;4.31;84.99;101101.00;1703971;83;21040;-64
2022/02/24 08:30:11;;;;;;;28.30;20.40;;;;;;;4.34;84.94;101093.67;1706501;83;21179;-63
2022/02/24 08:32:42;;;;;;;25.13;19.90;;;;;;;4.37;84.88;101097.84;1710892;83;21173;-62
2022/02/24 08:35:11;;;;;;;29.43;21.63;;;;;;;4.34;85.01;101098.95;1708921;82;21075;-63
2022/02/24 08:37:38;;;;;;;27.40;20.23;;;;;;;4.36;85.18;101108.06;1714071;83;21568;-63
2022/02/24 08:40:06;;;;;;;30.90;21.33;;;;;;;4.39;85.05;101109.10;1709218;83;21019;-63
2022/02/24 08:42:33;;;;;;;24.33;18.67;;;;;;;4.44;84.34;101108.24;1708261;82;21531;-63
2022/02/24 08:44:59;;;;;;;29.02;19.75;;;;;;;4.44;84.47;101102.96;1718900;81;21004;-63
2022/02/24 08:47:25;;;;;;;24.77;19.37;;;;;;;4.41;84.28;101104.56;1731032;81;21279;-63
2022/02/24 08:49:52;;;;;;;30.97;23.55;;;;;;;4.39;84.48;101108.64;1732733;81;21547;-64
2022/02/24 08:52:18;;;;;;;24.60;18.02;;;;;;;4.37;84.60;101119.82;1733131;81;21051;-66
2022/02/24 08:54:46;;;;;;;28.92;18.10;;;;;;;4.36;85.00;101106.74;1733190;81;21525;-63
2022/02/24 08:57:13;;;;;;;27.30;19.60;;;;;;;4.40;85.01;101106.83;1721723;80;21156;-64
2022/02/24 08:59:40;;;;;;;25.73;17.17;;;;;;;4.51;84.65;101107.26;1710960;83;21129;-64
2022/02/24 09:02:06;;;;;;;23.00;17.10;;;;;;;4.59;84.56;101107.43;1687735;82;21127;-62
2022/02/24 09:04:33;;;;;;;24.55;18.12;;;;;;;4.62;84.41;101110.65;1684472;84;21080;-64
2022/02/24 09:06:59;;;;;;;22.05;15.50;;;;;;;4.63;84.66;101107.05;1677562;84;21064;-68
2022/02/24 09:09:26;;;;;;;21.27;14.98;;;;;;;4.66;84.29;101111.23;1676754;84;21056;-64
2022/02/24 09:11:53;;;;;;;22.77;13.67;;;;;;;4.69;84.07;101110.98;1690830;82;21607;-65
2022/02/24 09:14:21;;;;;;;15.30;12.87;;;;;;;4.75;83.17;101110.45;1717343;81;21599;-68
2022/02/24 09:16:48;;;;;;;17.30;14.40;;;;;;;4.72;82.45;101106.73;1715032;83;21024;-62
2022/02/24 09:19:15;;;;;;;19.65;13.58;;;;;;;4.67;82.53;101115.52;1715132;83;21017;-65
2022/02/24 09:21:41;;;;;;;17.37;14.45;;;;;;;4.58;82.91;101113.20;1714426;83;21084;-64
2022/02/24 09:24:08;;;;;;;15.93;12.17;;;;;;;4.53;83.18;101114.06;1715467;81;21509;-63
2022/02/24 09:26:34;;;;;;;16.97;13.48;;;;;;;4.61;83.53;101115.56;1713411;83;21057;-63
2022/02/24 09:29:03;;;;;;;16.40;13.03;;;;;;;4.73;83.18;101113.70;1711960;83;21053;-64
2022/02/24 09:31:30;;;;;;;18.03;12.53;;;;;;;4.86;83.25;101119.61;1717637;83;21017;-65
2022/02/24 09:33:56;;;;;;;15.30;13.70;;;;;;;4.96;82.94;101111.72;1718457;83;21021;-64
2022/02/24 09:36:24;;;;;;;13.37;11.70;;;;;;;5.02;82.59;101113.82;1709199;83;21009;-62
2022/02/24 09:38:50;;;;;;;17.32;13.98;;;;;;;5.05;83.10;101116.70;1715890;83;21049;-68
2022/02/24 09:41:18;;;;;;;17.02;13.03;;;;;;;5.09;82.58;101118.10;1698311;83;21051;-64
2022/02/24 09:43:45;;;;;;;17.23;13.43;;;;;;;5.07;81.72;101118.23;1700739;83;21081;-65
2022/02/24 09:46:12;;;;;;;15.10;12.70;;;;;;;5.09;81.22;101118.59;1674790;82;21747;-63
2022/02/24 09:48:42;;;;;;;15.57;12.20;;;;;;;5.14;80.99;101117.69;1670871;84;21054;-65
2022/02/24 09:51:14;;;;;;;17.13;14.23;;;;;;;5.18;80.56;101117.30;1666187;84;20997;-63
2022/02/24 09:53:41;;;;;;;21.43;15.83;;;;;;;5.15;79.93;101118.05;1666583;84;21084;-64
2022/02/24 09:56:16;;;;;;;21.30;15.40;;;;;;;5.06;79.93;101115.72;1673776;84;21137;-64
2022/02/24 09:58:43;;;;;;;18.80;15.17;;;;;;;4.92;79.78;101112.13;1665410;84;21408;-64
2022/02/24 10:01:12;;;;;;;25.00;16.40;;;;;;;4.86;80.57;101119.61;1670157;84;21081;-62
2022/02/24 10:03:41;;;;;;;19.77;14.40;;;;;;;4.91;80.87;101118.37;1671038;84;21041;-61
2022/02/24 10:06:09;;;;;;;20.27;15.70;;;;;;;4.95;81.21;101123.73;1682158;84;20986;-62
2022/02/24 10:08:47;;;;;;;23.53;15.93;;;;;;;4.96;80.57;101122.78;1675361;84;21083;-62
2022/02/24 10:11:22;;;;;;;20.43;15.10;;;;;;;4.90;80.27;101118.00;1681343;83;21197;-64
2022/02/24 10:14:05;;;;;;;18.73;14.17;;;;;;;4.82;80.67;101110.73;1717180;82;21115;-64
2022/02/24 10:17:04;;;;;;;17.37;13.23;;;;;;;4.97;80.74;101119.15;1714884;83;21014;-60
2022/02/24 10:19:40;;;;;;;;;;;;;;;5.10;80.19;101118.92;1726313;82;21026;-64
2022/02/24 10:22:34;;;;;;;15.87;12.40;;;;;;;5.16;80.16;101121.03;1725383;82;20110;-63
2022/02/24 10:25:04;;;;;;;16.32;13.88;;;;;;;5.16;79.62;101121.03;1703478;83;21015;-61
2022/02/24 10:27:42;;;;;;;17.50;11.37;;;;;;;5.18;79.55;101124.38;1715013;82;21066;-65
2022/02/24 10:30:16;;;;;;;16.93;12.85;;;;;;;5.11;78.33;101116.16;1716538;82;21010;-63
2022/02/24 10:32:48;;;;;;;11.60;10.40;;;;;;;5.05;78.86;101118.84;1716617;83;20959;-63
2022/02/24 10:35:34;;;;;;;13.10;9.83;;;;;;;5.06;79.40;101110.43;1679033;83;20973;-62
2022/02/24 10:38:13;;;;;;;;;;;;;;;5.18;78.70;101108.05;1680924;84;21061;-65
2022/02/24 10:40:49;;;;;;;9.35;8.48;;;;;;;5.26;78.12;101110.02;1691479;84;20162;-63
2022/02/24 10:43:24;;;;;;;9.60;8.40;;;;;;;5.24;77.90;101111.47;1668844;84;21069;-62
2022/02/24 10:46:09;;;;;;;10.10;9.10;;;;;;;5.22;77.37;101114.73;1686175;83;21084;-63
2022/02/24 10:48:56;;;;;;;11.90;9.60;;;;;;;5.17;77.94;101112.97;1695278;83;20997;-62
2022/02/24 10:51:31;;;;;;;10.30;8.78;;;;;;;5.21;77.77;101105.13;1704633;83;21086;-64
2022/02/24 10:54:13;;;;;;;9.77;8.77;;;;;;;5.29;77.07;101109.73;1709577;83;21014;-63
2022/02/24 10:56:43;;;;;;;13.00;8.70;;;;;;;5.31;76.82;101110.43;1716677;82;21172;-67
2022/02/24 10:59:16;;;;;;;10.13;9.13;;;;;;;5.32;77.12;101112.61;1687422;84;21062;-63
2022/02/24 11:01:42;;;;;;;12.27;9.90;;;;;;;5.25;77.01;101117.12;1712105;83;21089;-64
2022/02/24 11:04:08;;;;;;;13.00;9.70;;;;;;;5.22;77.34;101110.77;1710064;83;20963;-67
2022/02/24 11:06:37;;;;;;;13.95;8.83;;;;;;;5.24;77.15;101108.00;1714816;83;21612;-69
2022/02/24 11:09:07;;;;;;;11.70;9.87;;;;;;;5.28;76.23;101111.21;1706587;83;21069;-68
2022/02/24 11:11:37;;;;;;;10.60;9.37;;;;;;;5.25;75.99;101110.52;1701642;82;20991;-70
2022/02/24 11:14:10;;;;;;;12.23;10.17;;;;;;;5.19;76.10;101108.39;1702481;83;21023;-68
2022/02/24 11:16:36;;;;;;;12.77;11.13;;;;;;;5.16;76.11;101111.31;1704640;83;21002;-67
2022/02/24 11:19:04;;;;;;;12.37;10.90;;;;;;;5.09;76.45;101108.85;1704911;83;21023;-69
2022/02/24 11:21:32;;;;;;;13.03;10.50;;;;;;;5.05;76.17;101099.03;1710312;83;21089;-73
2022/02/24 11:24:00;;;;;;;12.43;10.35;;;;;;;5.09;76.34;101100.92;1712217;83;21029;-68
2022/02/24 11:26:46;;;;;;;11.60;10.37;;;;;;;5.12;76.28;101108.56;1710656;83;21045;-69